Time;durP1;ratioP1;P1;durP2;ratioP2;P2;SDS_P1;SDS_P2;PMS_P1;PMS_P2;Temp;Humidity;BMP_temperature;BMP_pressure;BME280_temperature;BME280_humidity;BME280_pressure;Samples;Min_cycle;Max_cycle;Signal;HPM_P1;HPM_P2
2022/05/20 00:00:07;;;;;;;;;;;;;;;24.85;46.30;101429.59;4998472;28;99384;-67
2022/05/20 00:02:34;;;;;;;;;;;;;;;24.65;47.16;101433.97;5002635;28;96812;-66
2022/05/20 00:05:00;;;;;;;;;;;;;;;24.49;47.63;101430.81;4998931;28;97876;-67
2022/05/20 00:07:27;;;;;;;;;;;;;;;24.42;47.58;101437.72;5001734;28;98974;-66
2022/05/20 00:09:54;;;;;;;;;;;;;;;24.99;46.61;101440.13;4999077;28;98700;-74
2022/05/20 00:12:20;;;;;;;;;;;;;;;24.50;47.68;101443.34;5002737;28;97114;-71
2022/05/20 00:14:47;;;;;;;;;;;;;;;24.60;47.66;101452.41;5003849;28;97457;-72
2022/05/20 00:17:13;;;;;;;;;;;;;;;24.87;47.07;101444.72;5006017;28;99197;-72
2022/05/20 00:19:39;;;;;;;;;;;;;;;24.29;48.39;101455.91;5007876;28;98810;-72
2022/05/20 00:22:06;;;;;;;;;;;;;;;24.72;47.44;101454.09;5006144;28;96983;-73
2022/05/20 00:24:33;;;;;;;;;;;;;;;24.44;48.29;101450.13;5012270;28;96893;-72
2022/05/20 00:27:00;;;;;;;;;;;;;;;23.67;50.37;101453.72;5006050;28;100285;-72
2022/05/20 00:29:27;;;;;;;;;;;;;;;23.72;50.63;101463.16;5007821;28;98728;-73
2022/05/20 00:31:53;;;;;;;;;;;;;;;23.99;49.84;101460.09;5005933;28;97202;-73
2022/05/20 00:34:20;;;;;;;;;;;;;;;23.66;51.10;101462.78;5008275;28;97367;-73
2022/05/20 00:36:46;;;;;;;;;;;;;;;23.73;50.66;101448.69;5008985;28;99010;-73
2022/05/20 00:39:12;;;;;;;;;;;;;;;23.55;51.63;101454.69;5007652;28;99411;-74
2022/05/20 00:41:39;;;;;;;;;;;;;;;23.92;50.58;101461.56;5004233;28;96866;-73
2022/05/20 00:44:07;;;;;;;;;;;;;;;23.40;51.92;101456.72;5005738;28;96802;-73
2022/05/20 00:46:33;;;;;;;;;;;;;;;23.74;51.27;101460.34;5003195;28;98995;-73
2022/05/20 00:49:01;;;;;;;;;;;;;;;23.63;51.29;101457.66;5004763;28;98487;-73
2022/05/20 00:51:31;;;;;;;;;;;;;;;23.28;51.99;101461.22;5009158;28;96821;-73
2022/05/20 00:54:01;;;;;;;;;;;;;;;24.00;50.40;101456.41;5006158;28;97126;-73
2022/05/20 00:56:30;;;;;;;;;;;;;;;23.90;50.80;101463.53;4999323;28;99033;-73
2022/05/20 00:58:56;;;;;;;;;;;;;;;23.30;52.51;101464.63;5003964;28;98829;-67
2022/05/20 01:01:28;;;;;;;;;;;;;;;23.23;52.39;101474.22;5007101;28;96819;-67
2022/05/20 01:03:55;;;;;;;;;;;;;;;22.85;53.88;101469.00;5002924;28;96987;-67
2022/05/20 01:06:22;;;;;;;;;;;;;;;23.36;52.51;101477.69;5004525;28;99136;-67
2022/05/20 01:08:48;;;;;;;;;;;;;;;23.76;51.12;101480.81;5005856;28;99096;-67
2022/05/20 01:11:14;;;;;;;;;;;;;;;23.04;52.99;101477.41;5003214;28;96877;-67
2022/05/20 01:13:41;;;;;;;;;;;;;;;23.11;53.34;101482.34;5009490;28;96868;-67
2022/05/20 01:16:11;;;;;;;;;;;;;;;22.70;54.66;101494.41;5004127;28;98961;-66
2022/05/20 01:18:40;;;;;;;;;;;;;;;23.15;53.09;101481.16;5008046;28;98786;-66
2022/05/20 01:21:07;;;;;;;;;;;;;;;23.00;53.83;101497.50;5005846;28;96916;-66
2022/05/20 01:23:35;;;;;;;;;;;;;;;23.26;52.93;101490.13;5008682;28;96842;-66
2022/05/20 01:26:02;;;;;;;;;;;;;;;22.90;53.86;101492.94;5002840;28;98792;-66
2022/05/20 01:28:29;;;;;;;;;;;;;;;23.23;53.08;101498.47;5004866;28;97798;-66
2022/05/20 01:30:56;;;;;;;;;;;;;;;22.85;54.13;101501.34;5002681;28;98422;-65
2022/05/20 01:33:23;;;;;;;;;;;;;;;23.05;53.36;101491.75;5006138;28;96876;-66
2022/05/20 01:35:50;;;;;;;;;;;;;;;23.19;53.25;101496.09;5003747;28;99105;-66
2022/05/20 01:38:16;;;;;;;;;;;;;;;22.29;55.94;101499.25;5006295;28;99253;-67
2022/05/20 01:40:45;;;;;;;;;;;;;;;22.85;54.75;101513.97;5000636;28;98491;-67
2022/05/20 01:43:16;;;;;;;;;;;;;;;22.45;55.82;101516.88;5000387;28;97175;-66
2022/05/20 01:45:46;;;;;;;;;;;;;;;22.54;55.28;101518.91;5004161;28;98839;-66
2022/05/20 01:48:17;;;;;;;;;;;;;;;22.60;55.42;101526.53;5008782;28;97588;-66
2022/05/20 01:50:48;;;;;;;;;;;;;;;22.85;54.74;101530.13;5005861;28;96878;-66
2022/05/20 01:53:18;;;;;;;;;;;;;;;22.84;55.12;101536.53;5003320;28;96913;-66
2022/05/20 01:55:50;;;;;;;;;;;;;;;22.15;56.27;101536.13;5006295;28;101670;-67
2022/05/20 01:58:19;;;;;;;;;;;;;;;23.00;54.67;101545.16;5008150;28;98950;-66
2022/05/20 02:00:46;;;;;;;;;;;;;;;22.74;55.36;101549.78;5008451;28;96944;-66
2022/05/20 02:03:15;;;;;;;;;;;;;;;22.72;55.35;101543.63;5000576;28;96890;-66
2022/05/20 02:05:44;;;;;;;;;;;;;;;22.56;55.90;101545.72;5005974;28;99477;-67
2022/05/20 02:08:13;;;;;;;;;;;;;;;22.64;55.53;101538.78;5000192;28;102558;-67
2022/05/20 02:10:41;;;;;;;;;;;;;;;22.56;56.04;101540.34;5004739;28;96931;-67
2022/05/20 02:13:12;;;;;;;;;;;;;;;22.02;57.71;101550.56;4999481;28;96994;-67
2022/05/20 02:15:41;;;;;;;;;;;;;;;21.85;58.21;101552.56;5005815;28;101413;-67
2022/05/20 02:18:10;;;;;;;;;;;;;;;21.99;58.17;101551.63;4997926;28;99457;-66
2022/05/20 02:20:39;;;;;;;;;;;;;;;22.63;56.28;101555.94;5004601;28;97596;-67
2022/05/20 02:23:08;;;;;;;;;;;;;;;22.18;57.58;101551.19;5000290;28;97082;-68
2022/05/20 02:25:37;;;;;;;;;;;;;;;22.70;55.94;101553.66;5008334;28;98679;-67
2022/05/20 02:28:07;;;;;;;;;;;;;;;22.88;54.97;101554.16;5003825;28;98761;-67
2022/05/20 02:30:35;;;;;;;;;;;;;;;22.90;55.24;101558.47;5002440;28;96889;-67
2022/05/20 02:33:04;;;;;;;;;;;;;;;22.73;55.70;101555.28;5008409;28;97291;-67
2022/05/20 02:35:30;;;;;;;;;;;;;;;22.34;56.88;101548.25;5006495;28;99160;-68
2022/05/20 02:38:03;;;;;;;;;;;;;;;22.69;55.62;101553.78;5002164;28;98945;-67
2022/05/20 02:40:30;;;;;;;;;;;;;;;23.03;54.67;101555.72;5004929;28;96783;-67
2022/05/20 02:42:56;;;;;;;;;;;;;;;23.04;54.24;101547.50;5003226;28;97018;-68
2022/05/20 02:45:23;;;;;;;;;;;;;;;22.93;54.38;101549.28;5005745;28;99726;-68
2022/05/20 02:47:50;;;;;;;;;;;;;;;23.28;53.39;101550.19;5000144;28;98655;-68
2022/05/20 02:50:17;;;;;;;;;;;;;;;22.57;55.51;101548.31;5001713;28;96910;-67
2022/05/20 02:52:43;;;;;;;;;;;;;;;23.24;53.71;101548.69;5004474;28;96933;-67
2022/05/20 02:55:09;;;;;;;;;;;;;;;22.97;54.49;101550.81;5006208;28;98893;-68
2022/05/20 02:57:36;;;;;;;;;;;;;;;23.05;54.41;101560.00;5003763;28;102225;-67
2022/05/20 03:05:33;;;;;;;;;;;;;;;23.10;54.24;101566.91;4995528;28;97054;-67
2022/05/20 03:07:59;;;;;;;;;;;;;;;23.26;53.78;101564.75;4998081;28;98794;-67
2022/05/20 03:10:26;;;;;;;;;;;;;;;22.97;54.63;101575.88;5004045;28;97686;-67
2022/05/20 03:12:57;;;;;;;;;;;;;;;22.58;56.20;101585.03;5005180;28;97128;-66
2022/05/20 03:15:24;;;;;;;;;;;;;;;22.61;56.11;101582.13;5003085;28;97244;-67
2022/05/20 03:17:50;;;;;;;;;;;;;;;22.79;55.63;101588.03;5005731;28;98988;-67
2022/05/20 03:20:17;;;;;;;;;;;;;;;22.83;55.36;101584.16;5001894;28;97448;-66
2022/05/20 03:22:44;;;;;;;;;;;;;;;22.59;56.11;101588.59;5001802;28;96903;-66
2022/05/20 03:25:10;;;;;;;;;;;;;;;22.74;55.19;101583.97;5004342;28;99167;-66
2022/05/20 03:27:37;;;;;;;;;;;;;;;22.44;56.57;101584.31;5007889;28;98863;-66
2022/05/20 03:30:04;;;;;;;;;;;;;;;22.75;55.65;101585.69;5000251;28;96877;-66
2022/05/20 03:32:30;;;;;;;;;;;;;;;22.78;55.21;101589.00;5003217;28;96819;-67
2022/05/20 03:34:57;;;;;;;;;;;;;;;23.00;54.68;101580.19;5001874;28;98967;-67
2022/05/20 03:37:24;;;;;;;;;;;;;;;22.65;55.04;101586.31;5000779;28;99160;-67
2022/05/20 03:39:52;;;;;;;;;;;;;;;22.51;55.95;101591.84;5001114;28;97048;-66
2022/05/20 03:42:19;;;;;;;;;;;;;;;23.03;54.20;101593.47;5001472;28;96991;-66
2022/05/20 03:44:48;;;;;;;;;;;;;;;23.06;53.81;101590.53;5002752;28;98894;-66
2022/05/20 03:47:14;;;;;;;;;;;;;;;22.78;54.39;101591.69;5007337;28;99067;-67
2022/05/20 03:49:41;;;;;;;;;;;;;;;22.92;54.20;101587.97;5007263;28;96770;-67
2022/05/20 03:52:08;;;;;;;;;;;;;;;22.78;55.05;101599.78;5006014;28;96889;-67
2022/05/20 03:54:34;;;;;;;;;;;;;;;22.84;55.10;101598.50;5007525;28;99003;-67
2022/05/20 03:57:02;;;;;;;;;;;;;;;22.79;55.44;101604.19;5008808;28;98864;-67
2022/05/20 03:59:28;;;;;;;;;;;;;;;22.77;55.74;101595.38;5002334;28;96969;-66
2022/05/20 04:01:57;;;;;;;;;;;;;;;22.71;56.28;101593.06;4999504;28;97773;-66
2022/05/20 04:04:25;;;;;;;;;;;;;;;22.65;56.04;101605.16;5003558;28;99099;-67
2022/05/20 04:06:51;;;;;;;;;;;;;;;23.20;54.95;101600.28;5002976;28;98871;-67
2022/05/20 04:09:18;;;;;;;;;;;;;;;22.53;56.47;101607.88;5004674;28;97217;-67
2022/05/20 04:11:44;;;;;;;;;;;;;;;23.14;55.22;101611.53;5010994;28;97056;-72
2022/05/20 04:14:12;;;;;;;;;;;;;;;23.16;54.81;101610.44;5009294;28;98987;-71
2022/05/20 04:16:38;;;;;;;;;;;;;;;23.64;53.27;101616.69;5003943;28;99243;-72
2022/05/20 04:19:04;;;;;;;;;;;;;;;23.31;54.59;101611.97;5010270;28;96842;-72
2022/05/20 04:21:31;;;;;;;;;;;;;;;23.73;52.94;101609.72;5001409;28;96974;-72
2022/05/20 04:23:57;;;;;;;;;;;;;;;23.55;53.23;101613.84;5005512;28;97690;-72
2022/05/20 04:26:23;;;;;;;;;;;;;;;23.90;52.51;101609.28;5005587;28;101034;-65
2022/05/20 04:28:50;;;;;;;;;;;;;;;23.15;53.88;101610.56;5004593;28;96803;-65
2022/05/20 04:31:17;;;;;;;;;;;;;;;23.76;52.64;101609.50;5007027;28;97209;-66
2022/05/20 04:33:43;;;;;;;;;;;;;;;23.67;52.58;101621.00;5010469;28;99346;-67
2022/05/20 04:36:10;;;;;;;;;;;;;;;23.09;54.69;101619.09;5011282;28;98835;-66
2022/05/20 04:38:36;;;;;;;;;;;;;;;23.31;54.05;101614.66;5003890;28;97100;-66
2022/05/20 04:49:16;;;;;;;;;;;;;;;23.96;51.86;101622.28;4999790;28;96766;-67
2022/05/20 04:51:43;;;;;;;;;;;;;;;24.25;51.00;101633.56;5001944;28;97734;-65
2022/05/20 04:56:54;;;;;;;;;;;;;;;24.16;50.83;101632.38;5005770;28;97759;-66
2022/05/20 04:59:21;;;;;;;;;;;;;;;24.23;50.99;101635.50;5004398;28;96887;-65
2022/05/20 05:01:49;;;;;;;;;;;;;;;24.41;50.33;101638.63;5007681;28;96978;-66
2022/05/20 05:04:15;;;;;;;;;;;;;;;23.97;51.85;101637.50;5004566;28;99082;-68
2022/05/20 05:06:41;;;;;;;;;;;;;;;24.29;50.88;101650.34;5003905;28;98763;-69
2022/05/20 05:09:08;;;;;;;;;;;;;;;24.27;50.61;101650.50;5001834;28;96912;-68
2022/05/20 05:11:36;;;;;;;;;;;;;;;24.44;50.41;101649.16;5002696;28;97309;-68
2022/05/20 05:14:03;;;;;;;;;;;;;;;24.45;49.91;101648.19;5004336;28;99323;-68
2022/05/20 05:16:29;;;;;;;;;;;;;;;24.42;50.14;101648.41;5006531;28;99398;-68
2022/05/20 05:18:56;;;;;;;;;;;;;;;24.55;49.88;101646.44;5005722;28;96888;-69
2022/05/20 05:21:23;;;;;;;;;;;;;;;24.67;49.57;101650.03;5005440;28;97971;-68
2022/05/20 05:23:49;;;;;;;;;;;;;;;24.80;48.98;101651.63;5001131;28;98950;-69
2022/05/20 05:26:15;;;;;;;;;;;;;;;24.41;49.80;101660.22;5004555;28;100538;-68
2022/05/20 05:28:41;;;;;;;;;;;;;;;24.61;49.48;101662.19;5005267;28;96771;-69
2022/05/20 05:31:08;;;;;;;;;;;;;;;24.40;50.16;101666.59;5006946;28;97828;-67
2022/05/20 05:33:34;;;;;;;;;;;;;;;24.39;50.30;101668.44;5004465;28;97714;-74
2022/05/20 05:36:02;;;;;;;;;;;;;;;24.56;49.66;101667.09;5005824;28;97107;-72
2022/05/20 05:38:29;;;;;;;;;;;;;;;24.22;50.73;101661.66;4995953;28;98026;-73
2022/05/20 05:40:55;;;;;;;;;;;;;;;24.69;49.59;101666.97;5008445;28;96863;-72
2022/05/20 05:43:21;;;;;;;;;;;;;;;24.05;51.25;101664.78;5003780;28;98759;-73
2022/05/20 05:45:48;;;;;;;;;;;;;;;24.14;51.16;101668.63;5006118;28;98688;-73
2022/05/20 05:48:16;;;;;;;;;;;;;;;24.44;50.45;101670.78;5007569;28;98910;-73
2022/05/20 05:50:42;;;;;;;;;;;;;;;24.93;48.81;101674.00;5007069;28;96950;-73
2022/05/20 05:53:11;;;;;;;;;;;;;;;24.99;48.67;101673.50;5003115;28;99574;-73
2022/05/20 05:55:38;;;;;;;;;;;;;;;24.32;49.91;101675.31;5007369;28;99099;-75
2022/05/20 05:58:04;;;;;;;;;;;;;;;24.83;48.96;101677.53;5002305;28;97194;-75
2022/05/20 06:00:31;;;;;;;;;;;;;;;24.69;49.22;101670.53;5003852;28;97051;-73
2022/05/20 06:02:57;;;;;;;;;;;;;;;24.73;49.30;101671.16;5004426;28;99553;-72
2022/05/20 06:05:23;;;;;;;;;;;;;;;24.77;48.16;101673.47;4994921;28;99129;-67
2022/05/20 06:07:51;;;;;;;;;;;;;;;25.13;47.65;101682.34;5003070;28;96860;-67
2022/05/20 06:10:19;;;;;;;;;;;;;;;24.90;48.08;101679.66;4999992;28;99242;-69
2022/05/20 06:12:45;;;;;;;;;;;;;;;25.19;47.45;101687.25;5003188;28;98895;-67
2022/05/20 06:15:14;;;;;;;;;;;;;;;24.46;48.52;101683.19;5001764;28;99050;-68
2022/05/20 06:17:40;;;;;;;;;;;;;;;24.51;48.00;101688.22;4999197;28;97084;-67
2022/05/20 06:20:07;;;;;;;;;;;;;;;24.18;47.47;101681.75;5003487;28;97699;-68
2022/05/20 06:22:34;;;;;;;;;;;;;;;24.59;46.50;101680.38;5001741;28;99554;-67
2022/05/20 06:25:00;;;;;;;;;;;;;;;24.83;46.00;101683.78;4997670;28;98251;-66
2022/05/20 06:27:28;;;;;;;;;;;;;;;24.75;45.50;101679.97;4997120;28;97253;-67
2022/05/20 06:29:54;;;;;;;;;;;;;;;24.21;47.54;101686.97;4997067;28;96944;-66
2022/05/20 06:32:24;;;;;;;;;;;;;;;25.54;44.32;101681.59;4994767;28;99017;-67
2022/05/20 06:40:21;;;;;;;;;;;;;;;25.85;43.46;101674.50;4992306;28;98627;-68
2022/05/20 06:42:49;;;;;;;;;;;;;;;24.73;46.28;101673.88;4995807;28;97798;-75
2022/05/20 06:45:16;;;;;;;;;;;;;;;24.81;46.31;101674.94;4998863;28;101415;-75
2022/05/20 06:47:42;;;;;;;;;;;;;;;24.64;47.00;101678.16;4993620;28;96907;-70
2022/05/20 06:50:09;;;;;;;;;;;;;;;25.25;46.22;101675.91;5001485;28;96815;-69
2022/05/20 06:52:36;;;;;;;;;;;;;;;25.16;44.57;101669.41;4997414;28;101539;-69
2022/05/20 06:55:02;;;;;;;;;;;;;;;25.28;44.30;101672.94;5003440;28;98962;-69
2022/05/20 06:57:29;;;;;;;;;;;;;;;24.71;44.81;101663.16;4995169;28;96867;-69
2022/05/20 06:59:56;;;;;;;;;;;;;;;25.73;42.55;101663.72;4996989;28;98439;-68
2022/05/20 07:02:23;;;;;;;;;;;;;;;26.36;41.17;101666.47;4992494;28;99027;-69
2022/05/20 07:04:49;;;;;;;;;;;;;;;26.16;40.56;101670.88;5000515;28;98168;-68
2022/05/20 07:07:15;;;;;;;;;;;;;;;25.76;41.33;101673.44;5003237;28;96878;-70
2022/05/20 07:09:41;;;;;;;;;;;;;;;25.80;40.46;101667.63;5006528;28;97784;-69
2022/05/20 07:12:09;;;;;;;;;;;;;;;26.36;40.05;101669.19;4995625;28;99403;-69
2022/05/20 07:14:35;;;;;;;;;;;;;;;25.65;40.63;101671.66;5003622;28;99151;-69
2022/05/20 07:17:03;;;;;;;;;;;;;;;25.94;39.90;101676.41;5003593;28;96990;-70
2022/05/20 07:19:29;;;;;;;;;;;;;;;26.63;39.03;101674.88;5002523;28;96762;-70
2022/05/20 07:21:55;;;;;;;;;;;;;;;26.66;38.66;101680.03;4999466;28;98980;-71
2022/05/20 07:24:22;;;;;;;;;;;;;;;25.67;40.13;101672.34;4997301;28;98699;-70
2022/05/20 07:26:48;;;;;;;;;;;;;;;26.30;39.38;101667.88;4999927;28;97527;-71
2022/05/20 07:29:15;;;;;;;;;;;;;;;26.19;39.77;101665.19;4995154;28;96941;-72
2022/05/20 07:31:41;;;;;;;;;;;;;;;26.99;38.56;101657.19;4996636;28;99378;-71
2022/05/20 07:34:09;;;;;;;;;;;;;;;26.44;39.01;101669.38;4995963;28;99203;-71
2022/05/20 07:36:35;;;;;;;;;;;;;;;26.20;38.99;101667.75;5001980;28;96873;-74
2022/05/20 07:39:01;;;;;;;;;;;;;;;27.10;37.41;101661.66;4995813;28;97264;-73
2022/05/20 07:41:28;;;;;;;;;;;;;;;25.74;38.95;101660.03;4996443;28;99003;-72
2022/05/20 07:43:54;;;;;;;;;;;;;;;26.31;38.54;101650.63;5004652;28;99263;-74
2022/05/20 07:46:21;;;;;;;;;;;;;;;26.20;38.64;101666.91;5003041;28;97256;-73
2022/05/20 07:48:47;;;;;;;;;;;;;;;26.91;37.10;101657.06;5003008;28;97107;-72
2022/05/20 07:51:16;;;;;;;;;;;;;;;26.35;38.56;101667.47;5003430;28;97624;-72
2022/05/20 07:53:45;;;;;;;;;;;;;;;25.97;38.77;101666.19;5003783;28;99268;-74
2022/05/20 07:56:13;;;;;;;;;;;;;;;26.77;37.37;101665.53;5004931;28;96860;-73
2022/05/20 07:58:41;;;;;;;;;;;;;;;27.44;35.98;101654.03;5001979;28;96993;-75
2022/05/20 08:01:08;;;;;;;;;;;;;;;26.48;37.39;101666.25;5004172;28;97965;-72
2022/05/20 08:06:21;;;;;;;;;;;;;;;26.24;38.08;101662.09;4997349;28;96840;-75
2022/05/20 08:08:48;;;;;;;;;;;;;;;26.11;37.74;101662.31;4999957;28;97093;-73
2022/05/20 08:11:15;;;;;;;;;;;;;;;27.06;36.08;101671.06;4997238;28;99133;-76
2022/05/20 08:13:42;;;;;;;;;;;;;;;25.87;37.13;101661.69;4995988;28;99220;-74
2022/05/20 08:16:08;;;;;;;;;;;;;;;26.50;36.44;101666.13;4993639;28;98064;-67
2022/05/20 08:18:34;;;;;;;;;;;;;;;26.78;36.19;101661.84;4996807;28;98550;-67
2022/05/20 08:21:01;;;;;;;;;;;;;;;26.79;36.70;101656.25;4996210;28;101588;-67
2022/05/20 08:23:28;;;;;;;;;;;;;;;26.16;37.60;101665.47;4993575;28;98842;-67
2022/05/20 08:25:55;;;;;;;;;;;;;;;27.01;36.30;101660.63;4994449;28;98579;-67
2022/05/20 08:28:21;;;;;;;;;;;;;;;27.62;34.75;101658.63;5000441;28;97766;-67
2022/05/20 08:30:47;;;;;;;;;;;;;;;26.90;35.50;101649.91;4997471;28;97611;-66
2022/05/20 08:33:13;;;;;;;;;;;;;;;25.65;38.15;101650.00;4997696;28;99093;-68
2022/05/20 08:35:39;;;;;;;;;;;;;;;26.94;36.12;101640.50;4999403;28;97258;-67
2022/05/20 08:38:06;;;;;;;;;;;;;;;27.40;35.48;101644.44;4996914;28;97368;-67
2022/05/20 08:40:37;;;;;;;;;;;;;;;26.90;35.23;101639.06;5000553;28;98837;-68
2022/05/20 08:43:04;;;;;;;;;;;;;;;27.07;35.26;101641.09;4996685;28;100624;-68
2022/05/20 08:45:32;;;;;;;;;;;;;;;27.48;34.45;101650.00;4999202;28;96882;-67
2022/05/20 08:47:58;;;;;;;;;;;;;;;27.03;34.81;101642.38;4995936;28;96848;-69
2022/05/20 08:50:27;;;;;;;;;;;;;;;26.47;35.99;101648.28;4995006;28;98720;-68
2022/05/20 08:52:55;;;;;;;;;;;;;;;26.41;35.81;101640.69;4997316;28;98216;-68
2022/05/20 08:55:22;;;;;;;;;;;;;;;27.19;34.56;101634.53;4997346;28;98068;-67
2022/05/20 08:57:51;;;;;;;;;;;;;;;27.30;33.67;101633.59;5005623;28;97482;-68
2022/05/20 09:00:18;;;;;;;;;;;;;;;27.07;34.02;101646.53;5000581;28;102562;-67
2022/05/20 09:02:44;;;;;;;;;;;;;;;26.93;34.23;101646.91;4997077;28;101092;-68
2022/05/20 09:05:15;;;;;;;;;;;;;;;27.55;33.05;101643.91;5003517;28;97341;-68
2022/05/20 09:07:53;;;;;;;;;;;;;;;27.49;33.27;101641.75;5001867;28;96977;-68
2022/05/20 09:10:28;;;;;;;;;;;;;;;27.19;33.50;101639.97;4993807;28;99086;-67
2022/05/20 09:13:04;;;;;;;;;;;;;;;26.96;33.13;101627.66;4997819;28;99952;-66
2022/05/20 09:15:46;;;;;;;;;;;;;;;27.38;32.87;101636.41;4997610;28;96803;-67
2022/05/20 09:18:31;;;;;;;;;;;;;;;27.07;33.09;101635.66;4998098;28;98813;-68
2022/05/20 09:20:58;;;;;;;;;;;;;;;26.96;32.74;101627.66;4997237;28;98960;-66
2022/05/20 09:23:25;;;;;;;;;;;;;;;26.93;33.19;101622.50;5000485;28;98834;-67
2022/05/20 09:26:00;;;;;;;;;;;;;;;27.09;33.17;101622.84;4997385;28;96889;-67
2022/05/20 09:28:30;;;;;;;;;;;;;;;26.92;33.66;101610.78;5000144;28;99133;-67
2022/05/20 09:31:04;;;;;;;;;;;;;;;27.46;33.53;101606.72;4998880;28;99031;-66
2022/05/20 09:33:32;;;;;;;;;;;;;;;27.31;33.36;101603.56;4999437;28;98747;-68
2022/05/20 09:35:59;;;;;;;;;;;;;;;26.50;35.33;101610.06;4998426;28;96982;-67
2022/05/20 09:38:36;;;;;;;;;;;;;;;26.14;34.48;101608.72;5002868;28;96897;-68
2022/05/20 09:41:10;;;;;;;;;;;;;;;27.18;33.32;101605.69;5002734;28;98922;-68
2022/05/20 09:43:40;;;;;;;;;;;;;;;27.27;31.74;101599.44;5004601;28;97215;-67
2022/05/20 09:46:08;;;;;;;;;;;;;;;26.84;32.29;101591.63;5006281;28;98048;-67
2022/05/20 09:48:36;;;;;;;;;;;;;;;27.49;30.99;101592.88;5001891;28;97113;-67
2022/05/20 09:51:08;;;;;;;;;;;;;;;27.23;30.85;101589.00;4997124;28;101626;-68
2022/05/20 09:53:36;;;;;;;;;;;;;;;27.65;31.08;101589.59;4997668;28;100459;-68
2022/05/20 09:56:23;;;;;;;;;;;;;;;27.92;31.21;101578.84;4995834;28;98803;-68
2022/05/20 09:59:06;;;;;;;;;;;;;;;26.87;32.29;101574.22;4999128;28;98594;-68
2022/05/20 10:01:32;;;;;;;;;;;;;;;27.64;31.28;101579.72;4993065;28;98889;-67
2022/05/20 10:04:02;;;;;;;;;;;;;;;27.91;31.03;101574.41;5006304;28;97676;-68
2022/05/20 10:06:31;;;;;;;;;;;;;;;27.58;31.17;101580.31;4994931;28;96850;-68
2022/05/20 10:09:01;;;;;;;;;;;;;;;27.63;31.27;101586.19;4995234;28;98607;-67
2022/05/20 10:11:30;;;;;;;;;;;;;;;27.70;31.41;101568.28;4997124;28;97593;-68
2022/05/20 10:13:58;;;;;;;;;;;;;;;28.16;30.16;101561.22;4997611;28;100147;-67
2022/05/20 10:16:32;;;;;;;;;;;;;;;28.23;30.26;101559.59;4999134;28;98772;-68
2022/05/20 10:19:02;;;;;;;;;;;;;;;28.02;29.18;101566.09;4995241;28;96917;-66
2022/05/20 10:21:43;;;;;;;;;;;;;;;28.30;29.25;101560.72;5000336;28;101234;-67
2022/05/20 10:24:18;;;;;;;;;;;;;;;27.19;30.07;101564.00;4996208;28;98475;-68
2022/05/20 10:26:49;;;;;;;;;;;;;;;27.47;29.21;101561.44;4993717;28;97535;-68
2022/05/20 10:34:54;;;;;;;;;;;;;;;27.12;30.68;101557.44;4997464;28;99151;-74
2022/05/20 10:37:24;;;;;;;;;;;;;;;27.02;30.33;101551.16;4994661;28;97007;-69
2022/05/20 10:40:06;;;;;;;;;;;;;;;26.43;31.58;101546.56;4996461;28;96893;-69
2022/05/20 10:42:49;;;;;;;;;;;;;;;26.48;31.38;101541.59;4996516;28;100865;-68
2022/05/20 10:51:00;;;;;;;;;;;;;;;27.29;30.35;101545.03;4993185;28;98172;-68
2022/05/20 10:53:32;;;;;;;;;;;;;;;27.28;29.58;101536.03;4992284;28;99345;-67
2022/05/20 10:56:15;;;;;;;;;;;;;;;27.01;30.42;101533.16;4995782;28;99324;-67
2022/05/20 10:58:53;;;;;;;;;;;;;;;26.64;30.95;101515.81;4996827;28;97192;-68
2022/05/20 11:01:25;;;;;;;;;;;;;;;26.90;31.31;101522.47;4997616;28;97607;-68
2022/05/20 11:04:12;;;;;;;;;;;;;;;27.20;31.15;101527.75;4996107;28;100553;-67
2022/05/20 11:06:46;;;;;;;;;;;;;;;26.89;31.40;101521.59;4979077;28;98519;-67
2022/05/20 11:09:17;;;;;;;;;;;;;;;26.59;31.43;101517.06;5005443;28;97751;-68
2022/05/20 11:11:55;;;;;;;;;;;;;;;27.50;30.58;101510.44;5000543;28;97586;-73
2022/05/20 11:14:30;;;;;;;;;;;;;;;27.14;31.06;101512.03;4999841;28;102603;-72
2022/05/20 11:17:08;;;;;;;;;;;;;;;27.37;30.41;101499.88;4995625;28;99459;-74
2022/05/20 11:19:52;;;;;;;;;;;;;;;27.48;30.37;101503.44;5000031;28;96917;-73
2022/05/20 11:22:35;;;;;;;;;;;;;;;27.59;30.65;101496.03;4995541;28;97195;-73
2022/05/20 11:25:09;;;;;;;;;;;;;;;27.67;30.62;101498.00;5000994;28;99354;-67
2022/05/20 11:27:45;;;;;;;;;;;;;;;27.88;30.98;101492.38;5003869;28;98956;-68
2022/05/20 11:30:34;;;;;;;;;;;;;;;28.23;30.40;101484.38;5003455;28;97193;-67
2022/05/20 11:33:06;;;;;;;;;;;;;;;28.62;29.76;101481.44;4996001;28;97222;-68
2022/05/20 11:35:46;;;;;;;;;;;;;;;28.88;29.67;101485.16;4996583;28;99058;-68
2022/05/20 11:38:35;;;;;;;;;;;;;;;28.04;30.96;101479.00;4994205;28;98987;-68
2022/05/20 11:41:12;;;;;;;;;;;;;;;28.07;31.00;101473.28;4994376;28;98840;-68
2022/05/20 11:43:56;;;;;;;;;;;;;;;28.51;30.48;101460.75;5001368;28;96853;-68
2022/05/20 11:46:30;;;;;;;;;;;;;;;28.64;30.02;101465.81;5004678;28;99083;-67
2022/05/20 11:49:05;;;;;;;;;;;;;;;28.59;29.90;101452.69;4998770;28;101561;-69
2022/05/20 11:51:52;;;;;;;;;;;;;;;28.88;29.89;101458.78;5002309;28;97236;-69
2022/05/20 11:54:23;;;;;;;;;;;;;;;28.52;29.70;101444.31;4995747;28;98424;-67
2022/05/20 11:56:52;;;;;;;;;;;;;;;28.87;29.60;101439.91;4992343;28;98760;-68
2022/05/20 11:59:21;;;;;;;;;;;;;;;29.04;28.87;101439.03;4997872;28;98741;-68
2022/05/20 12:01:48;;;;;;;;;;;;;;;28.61;29.02;101434.38;5002791;28;97672;-68
2022/05/20 12:04:16;;;;;;;;;;;;;;;29.04;26.56;101435.47;4997241;28;97396;-68
2022/05/20 12:06:45;;;;;;;;;;;;;;;29.04;27.30;101424.56;5002254;28;99441;-67
2022/05/20 12:09:34;;;;;;;;;;;;;;;28.35;29.21;101423.41;5003777;28;99090;-67
2022/05/20 12:12:09;;;;;;;;;;;;;;;28.89;28.39;101419.69;5002255;28;97487;-68
2022/05/20 12:14:57;;;;;;;;;;;;;;;28.83;27.82;101414.88;5002432;28;97307;-68
2022/05/20 12:17:29;;;;;;;;;;;;;;;29.00;27.23;101406.88;5001801;28;99144;-68
2022/05/20 12:25:52;;;;;;;;;;;;;;;29.40;26.40;101379.97;4944352;28;96972;-68
2022/05/20 12:28:29;;;;;;;;;;;;;;;29.68;25.38;101381.47;4943800;28;99149;-68
2022/05/20 12:31:04;;;;;;;;;;;;;;;29.65;25.57;101381.81;4974953;28;99063;-68
2022/05/20 12:33:50;;;;;;;;;;;;;;;29.45;25.42;101390.38;5002615;28;97377;-67
2022/05/20 12:36:18;;;;;;;;;;;;;;;29.85;23.91;101370.66;5007775;28;96866;-66
2022/05/20 12:38:46;;;;;;;;;;;;;;;29.84;24.97;101372.53;5005578;28;100063;-67
2022/05/20 12:41:17;;;;;;;;;;;;;;;29.21;25.88;101369.28;5005515;28;98715;-68
2022/05/20 12:44:01;;;;;;;;;;;;;;;29.51;25.33;101365.22;4999747;28;96925;-69
2022/05/20 12:46:33;;;;;;;;;;;;;;;30.26;24.78;101366.22;4998481;28;98888;-68
2022/05/20 12:49:00;;;;;;;;;;;;;;;30.09;22.18;101363.44;5005933;28;98097;-67
2022/05/20 12:51:27;;;;;;;;;;;;;;;29.42;22.38;101358.00;4999108;28;99128;-67
2022/05/20 12:53:53;;;;;;;;;;;;;;;29.84;21.74;101355.34;5008605;28;96857;-68
2022/05/20 12:56:30;;;;;;;;;;;;;;;29.62;22.25;101354.91;4995416;28;97257;-68
2022/05/20 12:59:12;;;;;;;;;;;;;;;30.44;20.99;101356.03;5001274;28;98864;-67
2022/05/20 13:01:38;;;;;;;;;;;;;;;29.78;22.17;101350.53;4997812;28;98767;-68
2022/05/20 13:04:09;;;;;;;;;;;;;;;30.74;22.49;101354.53;4996756;28;97174;-67
2022/05/20 13:06:35;;;;;;;;;;;;;;;31.07;23.00;101349.94;4998699;28;96920;-68
2022/05/20 13:09:03;;;;;;;;;;;;;;;31.10;22.90;101346.88;4998584;28;99078;-74
2022/05/20 13:11:42;;;;;;;;;;;;;;;30.88;23.37;101341.06;4996932;28;98792;-74
2022/05/20 13:14:11;;;;;;;;;;;;;;;32.03;21.19;101351.50;5000046;28;97077;-75
2022/05/20 13:16:39;;;;;;;;;;;;;;;32.15;19.06;101348.41;5000615;28;97615;-75
2022/05/20 13:19:13;;;;;;;;;;;;;;;32.95;18.33;101346.09;4995443;28;97776;-75
2022/05/20 13:21:42;;;;;;;;;;;;;;;33.04;18.35;101334.88;4994452;28;99368;-76
2022/05/20 13:24:13;;;;;;;;;;;;;;;31.96;19.75;101327.81;5001431;28;97320;-75
2022/05/20 13:26:42;;;;;;;;;;;;;;;32.38;19.36;101317.28;5000136;28;97770;-69